Time;durP1;ratioP1;P1;durP2;ratioP2;P2;SDS_P1;SDS_P2;PMS_P1;PMS_P2;Temp;Humidity;BMP_temperature;BMP_pressure;BME280_temperature;BME280_humidity;BME280_pressure;Samples;Min_cycle;Max_cycle;Signal;HPM_P1;HPM_P2
2023/06/24 00:01:17;;;;;;;12.85;11.55;;;19.90;99.90;;;;;;5093522;28;20394;-79
2023/06/24 00:03:46;;;;;;;13.32;11.95;;;20.00;99.90;;;;;;5094510;28;20028;-81
2023/06/24 00:06:18;;;;;;;12.52;11.25;;;20.00;99.90;;;;;;5094791;28;20017;-79
2023/06/24 00:08:47;;;;;;;12.98;11.55;;;20.00;99.90;;;;;;5094810;28;20020;-82
2023/06/24 00:11:13;;;;;;;12.27;10.98;;;20.00;99.90;;;;;;5094559;28;20478;-80
2023/06/24 00:13:40;;;;;;;12.10;10.70;;;20.00;99.90;;;;;;5094549;28;20016;-81
2023/06/24 00:16:08;;;;;;;11.38;10.18;;;20.00;99.90;;;;;;5094568;28;20020;-82
2023/06/24 00:18:35;;;;;;;11.10;10.07;;;20.00;99.90;;;;;;5094419;28;20024;-80
2023/06/24 00:21:02;;;;;;;12.25;9.77;;;20.00;99.90;;;;;;5093147;28;20016;-81
2023/06/24 00:23:30;;;;;;;10.68;9.40;;;20.00;99.90;;;;;;5081416;28;20037;-81
2023/06/24 00:25:56;;;;;;;7.80;7.07;;;20.00;99.90;;;;;;5074118;28;20019;-80
2023/06/24 00:28:22;;;;;;;8.02;6.93;;;19.90;99.90;;;;;;5072680;28;20357;-81
2023/06/24 00:30:49;;;;;;;6.80;5.93;;;19.90;99.90;;;;;;5072707;28;20055;-81
2023/06/24 00:33:16;;;;;;;5.65;5.25;;;19.70;99.90;;;;;;5073914;28;20028;-79
2023/06/24 00:35:42;;;;;;;9.25;5.43;;;19.70;99.90;;;;;;5073929;28;20013;-79
2023/06/24 00:38:08;;;;;;;6.30;5.60;;;19.70;99.90;;;;;;5073939;28;20497;-81
2023/06/24 00:40:34;;;;;;;6.30;5.70;;;19.70;99.90;;;;;;5071700;28;20063;-81
2023/06/24 00:43:01;;;;;;;7.03;5.18;;;19.70;99.90;;;;;;5072560;28;20517;-79
2023/06/24 00:45:29;;;;;;;6.10;5.07;;;19.70;99.90;;;;;;5073857;28;20020;-80
2023/06/24 00:47:56;;;;;;;9.07;5.53;;;19.70;99.90;;;;;;5073645;28;20040;-79
2023/06/24 00:50:22;;;;;;;6.53;5.95;;;19.70;99.90;;;;;;5072515;28;20029;-80
2023/06/24 00:52:48;;;;;;;14.02;5.30;;;19.60;99.90;;;;;;5073724;28;20099;-82
2023/06/24 00:55:15;;;;;;;6.45;4.95;;;19.60;99.90;;;;;;5072441;28;20062;-81
2023/06/24 00:57:43;;;;;;;7.72;5.55;;;19.60;99.90;;;;;;5073693;28;20385;-81
2023/06/24 01:00:14;;;;;;;5.57;5.07;;;19.50;99.90;;;;;;5073631;28;20021;-81
2023/06/24 01:02:42;;;;;;;6.65;5.10;;;19.40;99.90;;;;;;5072365;28;20028;-80
2023/06/24 01:05:09;;;;;;;7.22;6.00;;;19.50;99.90;;;;;;5073539;28;20078;-79
2023/06/24 01:07:36;;;;;;;6.78;6.10;;;19.50;99.90;;;;;;5073819;28;20052;-81
2023/06/24 01:10:07;;;;;;;7.43;6.00;;;19.50;99.90;;;;;;5072227;28;20482;-81
2023/06/24 01:12:38;;;;;;;9.88;6.45;;;19.50;99.90;;;;;;5073420;28;20028;-79
2023/06/24 01:15:06;;;;;;;6.63;5.88;;;19.50;99.90;;;;;;5071802;28;20470;-82
2023/06/24 01:17:39;;;;;;;9.13;6.03;;;19.50;99.90;;;;;;5073394;28;20075;-79
2023/06/24 01:20:11;;;;;;;5.97;5.35;;;19.50;99.90;;;;;;5072123;28;20016;-82
2023/06/24 01:22:58;;;;;;;8.38;6.07;;;19.50;99.90;;;;;;5073500;28;20354;-79
2023/06/24 01:25:43;;;;;;;6.82;5.35;;;19.50;99.90;;;;;;5073548;28;20029;-79
2023/06/24 01:28:40;;;;;;;9.30;6.65;;;19.30;99.90;;;;;;5073330;28;20100;-81
2023/06/24 01:31:24;;;;;;;9.25;7.05;;;19.30;99.90;;;;;;5069754;28;20040;-82
2023/06/24 01:34:01;;;;;;;9.15;6.53;;;19.20;99.90;;;;;;5072026;28;20508;-79
2023/06/24 01:36:30;;;;;;;6.22;5.72;;;19.20;99.90;;;;;;5073397;28;20043;-81
2023/06/24 01:39:03;;;;;;;6.70;5.63;;;19.10;99.90;;;;;;5073323;28;20028;-79
2023/06/24 01:41:39;;;;;;;9.27;6.78;;;19.10;99.90;;;;;;5073474;28;20386;-81
2023/06/24 01:44:09;;;;;;;7.10;6.35;;;19.10;99.90;;;;;;5071798;28;20066;-79
2023/06/24 01:46:36;;;;;;;7.43;5.75;;;19.10;99.90;;;;;;5073090;28;20078;-79
2023/06/24 01:49:06;;;;;;;8.18;6.07;;;19.10;99.90;;;;;;5073165;28;20052;-81
2023/06/24 01:51:34;;;;;;;7.05;6.45;;;19.10;99.90;;;;;;5074097;28;20465;-81
2023/06/24 01:54:06;;;;;;;9.07;6.60;;;19.10;99.90;;;;;;5077072;28;20025;-81
2023/06/24 01:56:35;;;;;;;7.45;6.10;;;19.10;99.90;;;;;;5075635;28;20029;-81
2023/06/24 01:59:03;;;;;;;6.57;5.97;;;19.10;99.90;;;;;;5075625;28;20074;-81
2023/06/24 02:01:32;;;;;;;7.20;5.97;;;19.10;99.90;;;;;;5076875;28;20025;-79
2023/06/24 02:03:59;;;;;;;7.53;6.10;;;19.10;99.90;;;;;;5075528;28;20491;-79
2023/06/24 02:06:28;;;;;;;8.23;6.97;;;19.10;99.90;;;;;;5075492;28;20017;-79
2023/06/24 02:08:54;;;;;;;6.75;6.15;;;19.10;99.90;;;;;;5076683;28;20183;-81
2023/06/24 02:11:23;;;;;;;6.70;5.97;;;19.10;99.90;;;;;;5074810;28;20544;-81
2023/06/24 02:13:53;;;;;;;7.88;6.13;;;19.10;99.90;;;;;;5075126;28;20028;-80
2023/06/24 02:16:20;;;;;;;7.10;5.65;;;19.10;99.90;;;;;;5075185;28;20060;-79
2023/06/24 02:18:47;;;;;;;7.93;6.35;;;19.10;99.90;;;;;;5076673;28;20029;-81
2023/06/24 02:21:14;;;;;;;8.52;5.63;;;19.10;99.90;;;;;;5075195;28;20046;-82
2023/06/24 02:23:40;;;;;;;7.93;6.22;;;19.00;99.90;;;;;;5076250;28;20032;-81
2023/06/24 02:26:07;;;;;;;7.93;6.57;;;19.10;99.90;;;;;;5076331;28;20028;-79
2023/06/24 02:28:34;;;;;;;13.63;6.95;;;19.10;99.90;;;;;;5076293;28;20438;-81
2023/06/24 02:31:00;;;;;;;7.60;6.80;;;19.10;99.90;;;;;;5075097;28;20074;-81
2023/06/24 02:33:26;;;;;;;12.23;7.43;;;19.10;99.90;;;;;;5076238;28;20028;-80
2023/06/24 02:35:53;;;;;;;11.20;7.95;;;19.10;99.90;;;;;;5076217;28;20038;-79
2023/06/24 02:38:18;;;;;;;9.98;7.57;;;19.10;99.90;;;;;;5077080;28;20021;-80
2023/06/24 02:40:45;;;;;;;11.82;7.78;;;19.10;99.90;;;;;;5096373;28;20066;-81
2023/06/24 02:43:11;;;;;;;11.35;8.85;;;19.10;99.90;;;;;;5096220;28;20481;-79
2023/06/24 02:45:38;;;;;;;13.52;9.23;;;19.10;99.90;;;;;;5096286;28;20024;-79
2023/06/24 02:48:05;;;;;;;9.68;8.57;;;19.10;99.90;;;;;;5094635;28;20093;-79
2023/06/24 02:50:33;;;;;;;11.18;8.23;;;19.10;99.90;;;;;;5095322;28;20130;-81
2023/06/24 02:52:58;;;;;;;10.38;7.57;;;19.10;99.90;;;;;;5094801;28;20565;-82
2023/06/24 02:55:25;;;;;;;7.55;6.78;;;19.10;99.90;;;;;;5095956;28;20122;-79
2023/06/24 02:57:51;;;;;;;8.90;6.93;;;19.00;99.90;;;;;;5095966;28;20035;-79
2023/06/24 03:00:17;;;;;;;8.80;7.43;;;19.00;99.90;;;;;;5096262;28;20357;-81
2023/06/24 03:02:44;;;;;;;9.75;6.82;;;18.90;99.90;;;;;;5093418;28;20480;-82
2023/06/24 03:05:11;;;;;;;8.55;7.70;;;18.90;99.90;;;;;;5094693;28;20035;-81
2023/06/24 03:07:38;;;;;;;8.52;7.82;;;18.80;99.90;;;;;;5094496;28;20016;-81
2023/06/24 03:10:05;;;;;;;10.43;7.25;;;18.90;99.90;;;;;;5094540;28;20489;-81
2023/06/24 03:12:31;;;;;;;10.25;7.35;;;18.80;99.90;;;;;;5094379;28;20024;-79
2023/06/24 03:14:57;;;;;;;9.00;8.07;;;18.80;99.90;;;;;;5095954;28;20016;-79
2023/06/24 03:17:22;;;;;;;7.60;6.60;;;18.80;99.90;;;;;;5094274;28;20050;-80
2023/06/24 03:19:48;;;;;;;10.70;8.50;;;18.80;99.90;;;;;;5094482;28;20069;-81
2023/06/24 03:22:14;;;;;;;9.93;7.85;;;18.90;99.90;;;;;;5094279;28;20466;-81
2023/06/24 03:24:39;;;;;;;9.20;8.30;;;18.90;99.90;;;;;;5094477;28;20031;-79
2023/06/24 03:27:05;;;;;;;10.45;8.07;;;18.90;99.90;;;;;;5095431;28;20021;-79
2023/06/24 03:29:30;;;;;;;9.98;8.90;;;18.90;99.90;;;;;;5095500;28;20058;-81
2023/06/24 03:31:56;;;;;;;27.77;18.80;;;19.00;99.90;;;;;;5094141;28;20016;-79
2023/06/24 03:34:22;;;;;;;30.48;19.83;;;18.90;99.90;;;;;;5095308;28;20020;-79
2023/06/24 03:36:47;;;;;;;24.75;17.58;;;18.90;99.90;;;;;;5095158;28;20020;-81
2023/06/24 03:39:13;;;;;;;50.28;29.70;;;18.80;99.90;;;;;;5093943;28;20019;-79
2023/06/24 03:41:39;;;;;;;75.30;36.97;;;18.80;99.90;;;;;;5093883;28;20023;-79
2023/06/24 03:44:05;;;;;;;73.57;38.15;;;18.80;99.90;;;;;;5095158;28;20077;-81
2023/06/24 03:46:32;;;;;;;68.88;40.30;;;18.70;99.90;;;;;;5095073;28;20452;-79
2023/06/24 03:48:59;;;;;;;80.22;42.70;;;18.70;99.90;;;;;;5093018;28;20048;-82
2023/06/24 03:51:25;;;;;;;78.93;44.00;;;18.70;99.90;;;;;;5093489;28;20474;-79
2023/06/24 03:53:51;;;;;;;88.07;45.38;;;18.60;99.90;;;;;;5093719;28;20038;-79
2023/06/24 03:56:17;;;;;;;73.88;41.53;;;18.50;99.90;;;;;;5094937;28;20043;-79
2023/06/24 03:58:43;;;;;;;73.38;43.30;;;18.50;99.90;;;;;;5094646;28;20055;-80
2023/06/24 04:01:09;;;;;;;69.95;41.67;;;18.40;99.90;;;;;;5093532;28;20073;-79
2023/06/24 04:03:35;;;;;;;72.60;41.95;;;18.30;99.90;;;;;;5093599;28;20063;-79
2023/06/24 04:06:01;;;;;;;69.80;42.63;;;18.30;99.90;;;;;;5093393;28;20054;-81
2023/06/24 04:08:30;;;;;;;69.93;40.28;;;18.40;99.90;;;;;;5093298;28;20520;-81
2023/06/24 04:10:57;;;;;;;64.32;39.28;;;18.40;99.90;;;;;;5093316;28;20012;-81
2023/06/24 04:13:22;;;;;;;60.33;35.90;;;18.40;99.90;;;;;;5093053;28;20024;-81
2023/06/24 04:15:48;;;;;;;64.40;35.78;;;18.40;99.90;;;;;;5093243;28;20111;-81
2023/06/24 04:18:14;;;;;;;58.45;35.08;;;18.40;99.90;;;;;;5093223;28;20050;-82
2023/06/24 04:20:40;;;;;;;61.47;34.38;;;18.40;99.90;;;;;;5094441;28;20028;-81
2023/06/24 04:23:05;;;;;;;54.90;34.25;;;18.40;99.90;;;;;;5092971;28;20032;-81
2023/06/24 04:25:31;;;;;;;52.13;31.13;;;18.40;99.90;;;;;;5093113;28;20059;-79
2023/06/24 04:27:57;;;;;;;52.70;32.20;;;18.40;99.90;;;;;;5094331;28;20058;-81
2023/06/24 04:30:22;;;;;;;52.90;32.35;;;18.40;99.90;;;;;;5094298;28;20395;-79
2023/06/24 04:32:48;;;;;;;55.72;32.40;;;18.30;99.90;;;;;;5092815;28;20107;-81
2023/06/24 04:35:14;;;;;;;51.05;32.33;;;18.20;99.90;;;;;;5092914;28;20020;-81
2023/06/24 04:37:39;;;;;;;52.17;32.20;;;18.20;99.90;;;;;;5094071;28;20020;-79
2023/06/24 04:40:06;;;;;;;53.65;31.13;;;18.10;99.90;;;;;;5094066;28;20078;-79
2023/06/24 04:42:31;;;;;;;54.83;30.63;;;18.10;99.90;;;;;;5094004;28;20030;-79
2023/06/24 04:44:57;;;;;;;53.28;29.58;;;18.00;99.90;;;;;;5093979;28;20032;-80
2023/06/24 04:47:22;;;;;;;56.13;30.90;;;17.90;99.90;;;;;;5092419;28;20063;-79
2023/06/24 04:49:48;;;;;;;58.10;32.03;;;17.80;99.90;;;;;;5094040;28;20073;-79
2023/06/24 04:52:13;;;;;;;54.67;31.23;;;17.80;99.90;;;;;;5092610;28;20106;-81
2023/06/24 04:54:39;;;;;;;54.45;31.27;;;17.80;99.90;;;;;;5092584;28;20045;-81
2023/06/24 04:57:08;;;;;;;50.88;29.75;;;17.90;99.90;;;;;;5094140;28;20016;-81
2023/06/24 04:59:34;;;;;;;50.20;28.77;;;17.90;99.90;;;;;;5093675;28;20020;-79
2023/06/24 05:01:59;;;;;;;47.25;26.48;;;17.90;99.90;;;;;;5093665;28;20366;-79
2023/06/24 05:04:25;;;;;;;42.30;26.25;;;18.00;99.90;;;;;;5092446;28;20032;-79
2023/06/24 05:06:51;;;;;;;44.67;25.77;;;18.00;99.90;;;;;;5092516;28;20020;-81
2023/06/24 05:09:18;;;;;;;37.78;24.45;;;18.10;99.90;;;;;;5094034;28;20054;-80
2023/06/24 05:11:43;;;;;;;38.72;23.70;;;18.20;99.90;;;;;;5092437;28;20020;-81
2023/06/24 05:14:09;;;;;;;34.97;23.15;;;18.20;99.90;;;;;;5093528;28;20528;-81
2023/06/24 05:16:35;;;;;;;38.03;22.85;;;18.30;99.90;;;;;;5092518;28;20458;-81
2023/06/24 05:19:00;;;;;;;33.95;22.88;;;18.40;99.90;;;;;;5092393;28;20431;-81
2023/06/24 05:21:26;;;;;;;33.75;21.08;;;18.30;99.90;;;;;;5092862;28;20059;-80
2023/06/24 05:23:51;;;;;;;37.80;24.63;;;18.40;99.90;;;;;;5092222;28;20032;-83
2023/06/24 05:26:17;;;;;;;36.38;25.38;;;18.50;99.90;;;;;;5094192;28;20470;-81
2023/06/24 05:28:42;;;;;;;34.33;24.45;;;18.50;99.90;;;;;;5096482;28;20016;-79
2023/06/24 05:31:08;;;;;;;32.55;22.67;;;18.50;99.90;;;;;;5096584;28;20016;-79
2023/06/24 05:33:34;;;;;;;35.13;24.48;;;18.60;99.90;;;;;;5097648;28;20027;-80
2023/06/24 05:35:59;;;;;;;33.72;23.50;;;18.60;99.90;;;;;;5097716;28;20024;-79
2023/06/24 05:38:25;;;;;;;35.83;25.17;;;18.70;99.90;;;;;;5096167;28;20027;-81
2023/06/24 05:40:50;;;;;;;45.70;28.30;;;18.60;99.90;;;;;;5096333;28;20036;-81
2023/06/24 05:43:16;;;;;;;46.72;29.08;;;18.40;99.90;;;;;;5097371;28;20047;-79
2023/06/24 05:45:41;;;;;;;52.10;29.40;;;18.20;99.90;;;;;;5096142;28;20020;-81
2023/06/24 05:48:07;;;;;;;47.13;27.75;;;18.20;99.90;;;;;;5097267;28;20097;-80
2023/06/24 05:50:33;;;;;;;49.10;29.63;;;18.20;99.90;;;;;;5096092;28;20024;-80
2023/06/24 05:52:58;;;;;;;43.35;27.85;;;18.20;99.90;;;;;;5097265;28;20020;-80
2023/06/24 05:55:24;;;;;;;47.58;29.02;;;18.30;99.90;;;;;;5097305;28;20496;-80
2023/06/24 05:57:49;;;;;;;42.08;26.88;;;18.10;99.90;;;;;;5097203;28;20024;-80
2023/06/24 06:00:16;;;;;;;40.58;27.45;;;18.00;99.90;;;;;;5097214;28;20428;-79
2023/06/24 06:02:42;;;;;;;37.38;25.73;;;17.90;99.90;;;;;;5097072;28;20389;-81
2023/06/24 06:05:08;;;;;;;38.03;25.98;;;17.80;99.90;;;;;;5097026;28;20032;-80
2023/06/24 06:07:34;;;;;;;32.67;22.50;;;17.70;99.90;;;;;;5097040;28;20065;-79
2023/06/24 06:10:00;;;;;;;38.55;24.63;;;17.70;99.90;;;;;;5082744;28;20029;-81
2023/06/24 06:12:26;;;;;;;25.98;19.63;;;17.80;99.90;;;;;;5076874;28;20484;-81
2023/06/24 06:14:51;;;;;;;23.90;16.42;;;17.80;99.90;;;;;;5075379;28;20032;-80
2023/06/24 06:17:17;;;;;;;23.95;16.30;;;17.80;99.90;;;;;;5075213;28;20167;-79
2023/06/24 06:19:46;;;;;;;21.27;14.38;;;17.90;99.90;;;;;;5076588;28;20074;-81
2023/06/24 06:22:12;;;;;;;18.02;13.68;;;17.90;99.90;;;;;;5075247;28;20070;-81
2023/06/24 06:24:38;;;;;;;15.25;12.80;;;18.00;99.90;;;;;;5076198;28;20036;-81
2023/06/24 06:27:04;;;;;;;18.42;12.63;;;18.00;99.90;;;;;;5075055;28;20020;-80
2023/06/24 06:29:30;;;;;;;14.60;11.50;;;18.00;99.90;;;;;;5075153;28;20017;-80
2023/06/24 06:31:56;;;;;;;17.75;12.25;;;18.00;99.90;;;;;;5076276;28;20089;-81
2023/06/24 06:34:22;;;;;;;17.50;11.07;;;18.00;99.90;;;;;;5076255;28;20890;-79
2023/06/24 06:36:48;;;;;;;15.52;12.43;;;18.00;99.90;;;;;;5074920;28;20123;-81
2023/06/24 06:39:13;;;;;;;16.15;12.35;;;17.80;99.90;;;;;;5076175;28;20029;-79
2023/06/24 06:41:39;;;;;;;16.00;12.07;;;17.80;99.90;;;;;;5074975;28;20078;-80
2023/06/24 06:44:04;;;;;;;15.75;11.82;;;17.70;99.90;;;;;;5074794;28;20509;-81
2023/06/24 06:46:30;;;;;;;16.50;11.68;;;17.80;99.90;;;;;;5074777;28;20032;-80
2023/06/24 06:48:56;;;;;;;15.68;11.65;;;17.70;99.90;;;;;;5076003;28;20102;-81
2023/06/24 06:51:24;;;;;;;15.90;11.18;;;17.60;99.90;;;;;;5074923;28;20157;-80
2023/06/24 06:53:51;;;;;;;18.90;11.55;;;17.50;99.90;;;;;;5075003;28;20455;-81
2023/06/24 06:56:18;;;;;;;15.65;11.20;;;17.60;99.90;;;;;;5075898;28;20027;-81
2023/06/24 06:58:44;;;;;;;16.77;10.57;;;17.60;99.90;;;;;;5075725;28;20021;-79
2023/06/24 07:01:09;;;;;;;15.43;10.00;;;17.70;99.90;;;;;;5075800;28;20488;-81
2023/06/24 07:03:35;;;;;;;15.15;10.55;;;17.60;99.90;;;;;;5074597;28;20028;-80
2023/06/24 07:06:01;;;;;;;12.48;10.57;;;17.60;99.90;;;;;;5075761;28;20024;-79
2023/06/24 07:08:26;;;;;;;12.18;10.35;;;17.60;99.90;;;;;;5075624;28;20088;-81
2023/06/24 07:10:52;;;;;;;12.70;9.57;;;17.60;99.90;;;;;;5074325;28;20017;-80
2023/06/24 07:13:17;;;;;;;16.38;9.88;;;17.70;99.90;;;;;;5075431;28;20024;-81
2023/06/24 07:15:43;;;;;;;11.57;10.13;;;17.60;99.90;;;;;;5075672;28;20017;-79
2023/06/24 07:18:08;;;;;;;13.43;10.52;;;17.60;99.90;;;;;;5074253;28;20021;-81
2023/06/24 07:20:34;;;;;;;16.98;10.65;;;17.60;99.90;;;;;;5074119;28;20031;-79
2023/06/24 07:23:00;;;;;;;12.88;10.43;;;17.60;99.90;;;;;;5075390;28;20028;-80
2023/06/24 07:25:28;;;;;;;12.15;10.40;;;17.50;99.90;;;;;;5075216;28;20501;-79
2023/06/24 07:27:53;;;;;;;16.10;10.88;;;17.60;99.90;;;;;;5074114;28;20020;-80
2023/06/24 07:30:19;;;;;;;12.38;9.77;;;17.50;99.90;;;;;;5075293;28;20016;-79
2023/06/24 07:32:44;;;;;;;13.60;9.77;;;17.50;99.90;;;;;;5073864;28;20025;-81
2023/06/24 07:35:10;;;;;;;12.43;10.68;;;17.60;99.90;;;;;;5073802;28;20472;-80
2023/06/24 07:37:36;;;;;;;11.50;9.90;;;17.60;99.90;;;;;;5075035;28;20013;-80
2023/06/24 07:40:03;;;;;;;12.50;9.30;;;17.70;99.90;;;;;;5073828;28;20021;-80
2023/06/24 07:42:29;;;;;;;11.70;9.75;;;17.70;99.90;;;;;;5075119;28;20536;-81
2023/06/24 07:44:54;;;;;;;14.52;9.52;;;17.70;99.90;;;;;;5074829;28;20032;-81
2023/06/24 07:47:20;;;;;;;11.07;8.82;;;17.70;99.90;;;;;;5074709;28;20051;-80
2023/06/24 07:49:45;;;;;;;13.60;9.30;;;17.70;99.90;;;;;;5073004;28;20025;-81
2023/06/24 07:52:11;;;;;;;13.13;8.82;;;17.70;99.90;;;;;;5074744;28;20036;-80
2023/06/24 07:54:37;;;;;;;11.20;8.35;;;17.80;99.90;;;;;;5074883;28;20363;-79
2023/06/24 07:57:03;;;;;;;12.45;8.68;;;17.70;99.90;;;;;;5073565;28;20016;-79
2023/06/24 07:59:28;;;;;;;12.18;8.02;;;17.80;99.90;;;;;;5074880;28;20054;-79
2023/06/24 08:01:54;;;;;;;10.90;8.20;;;17.90;99.90;;;;;;5073163;28;20154;-80
2023/06/24 08:04:19;;;;;;;12.82;7.32;;;17.80;99.90;;;;;;5074398;28;20032;-79
2023/06/24 08:06:45;;;;;;;11.30;7.78;;;17.80;99.90;;;;;;5074411;28;20027;-80
2023/06/24 08:09:11;;;;;;;7.90;6.70;;;17.70;99.90;;;;;;5073259;28;20032;-80
2023/06/24 08:11:36;;;;;;;9.65;7.15;;;17.80;99.90;;;;;;5073266;28;20025;-81
2023/06/24 08:14:03;;;;;;;11.00;8.20;;;17.90;99.90;;;;;;5073378;28;20110;-79
2023/06/24 08:16:28;;;;;;;9.63;7.50;;;17.90;99.90;;;;;;5074472;28;20107;-81
2023/06/24 08:18:54;;;;;;;9.10;7.50;;;18.00;99.90;;;;;;5074283;28;20060;-80
2023/06/24 08:21:20;;;;;;;9.75;7.53;;;18.00;99.90;;;;;;5074481;28;20026;-79
2023/06/24 08:23:46;;;;;;;8.95;7.32;;;18.00;99.90;;;;;;5072828;28;20496;-80
2023/06/24 08:26:12;;;;;;;10.00;7.15;;;18.00;99.90;;;;;;5074331;28;20108;-81
2023/06/24 08:28:37;;;;;;;10.55;7.85;;;18.10;99.90;;;;;;5072789;28;20441;-80
2023/06/24 08:31:03;;;;;;;9.23;7.72;;;18.10;99.90;;;;;;5072709;28;20107;-80
2023/06/24 08:33:29;;;;;;;12.00;8.15;;;18.10;99.90;;;;;;5072730;28;20017;-81
2023/06/24 08:35:54;;;;;;;10.48;6.93;;;18.10;99.90;;;;;;5073055;28;20039;-79
2023/06/24 08:38:20;;;;;;;9.52;7.50;;;18.10;99.90;;;;;;5072695;28;20115;-81
2023/06/24 08:40:46;;;;;;;12.38;8.35;;;18.00;99.90;;;;;;5073900;28;20031;-79
2023/06/24 08:43:12;;;;;;;12.50;7.55;;;18.00;99.90;;;;;;5073678;28;20017;-81
2023/06/24 08:45:38;;;;;;;10.35;8.52;;;18.10;99.90;;;;;;5073931;28;20021;-80
2023/06/24 08:48:04;;;;;;;10.38;7.85;;;18.10;99.90;;;;;;5072356;28;20048;-79
2023/06/24 08:50:37;;;;;;;9.40;7.25;;;18.00;99.90;;;;;;5072665;28;20017;-80
2023/06/24 08:53:08;;;;;;;20.58;8.60;;;18.00;99.90;;;;;;5072396;28;20027;-80
2023/06/24 08:55:39;;;;;;;11.32;8.23;;;17.90;99.90;;;;;;5072521;28;20028;-80
2023/06/24 08:58:04;;;;;;;8.52;7.00;;;18.00;99.90;;;;;;5072447;28;20019;-80
2023/06/24 09:00:30;;;;;;;12.05;8.38;;;18.10;99.90;;;;;;5071741;28;20029;-80
2023/06/24 09:02:56;;;;;;;10.07;7.88;;;18.10;99.90;;;;;;5073626;28;20017;-80
2023/06/24 09:05:22;;;;;;;11.65;7.40;;;18.00;99.90;;;;;;5073609;28;20055;-81
2023/06/24 09:07:48;;;;;;;11.43;7.38;;;18.00;99.90;;;;;;5073659;28;20071;-80
2023/06/24 09:10:30;;;;;;;10.02;6.97;;;18.00;99.90;;;;;;5073476;28;20028;-80
2023/06/24 09:12:55;;;;;;;9.68;7.88;;;18.00;99.90;;;;;;5073858;28;20028;-80
2023/06/24 09:15:21;;;;;;;8.02;6.70;;;18.10;99.90;;;;;;5073659;28;20020;-80
2023/06/24 09:17:47;;;;;;;10.05;6.85;;;18.10;99.90;;;;;;5073715;28;20020;-80
2023/06/24 09:20:12;;;;;;;12.18;7.35;;;18.10;99.90;;;;;;5072114;28;20074;-80
2023/06/24 09:22:41;;;;;;;10.40;7.30;;;18.30;99.90;;;;;;5073408;28;20581;-80
2023/06/24 09:25:07;;;;;;;13.98;8.73;;;18.30;99.90;;;;;;5073449;28;20512;-81
2023/06/24 09:27:33;;;;;;;10.25;8.00;;;18.30;99.90;;;;;;5073771;28;20020;-81
2023/06/24 09:29:58;;;;;;;10.20;7.63;;;18.30;99.90;;;;;;5073560;28;20367;-80
2023/06/24 09:32:34;;;;;;;11.52;7.53;;;18.40;99.90;;;;;;5071968;28;20023;-80
2023/06/24 09:35:03;;;;;;;12.95;7.82;;;18.30;99.90;;;;;;5072044;28;20378;-81
2023/06/24 09:37:31;;;;;;;9.07;8.00;;;18.30;99.90;;;;;;5073709;28;20411;-82
2023/06/24 09:39:56;;;;;;;9.18;7.28;;;18.30;99.90;;;;;;5072331;28;20474;-80
2023/06/24 09:42:23;;;;;;;10.38;7.28;;;18.40;99.90;;;;;;5071874;28;20021;-81
2023/06/24 09:44:54;;;;;;;10.07;7.93;;;18.50;99.90;;;;;;5073182;28;20040;-81
2023/06/24 09:47:19;;;;;;;10.23;9.05;;;18.80;99.90;;;;;;5071615;28;20027;-80
2023/06/24 09:49:45;;;;;;;12.35;9.32;;;18.80;99.90;;;;;;5073436;28;20028;-81
2023/06/24 09:52:15;;;;;;;12.93;8.65;;;18.70;99.90;;;;;;5071965;28;20433;-80
2023/06/24 09:54:43;;;;;;;11.27;9.30;;;18.70;99.90;;;;;;5071874;28;20032;-80
2023/06/24 09:57:09;;;;;;;9.82;8.73;;;18.70;99.90;;;;;;5073032;28;20055;-80
2023/06/24 09:59:35;;;;;;;13.10;9.13;;;18.70;99.90;;;;;;5073110;28;20019;-81
2023/06/24 10:02:03;;;;;;;11.38;8.52;;;18.80;99.90;;;;;;5073004;28;20025;-80
2023/06/24 10:04:29;;;;;;;9.65;8.63;;;18.90;99.90;;;;;;5073077;28;20115;-81
2023/06/24 10:06:55;;;;;;;12.40;9.40;;;19.00;99.90;;;;;;5072361;28;20082;-81
2023/06/24 10:09:21;;;;;;;11.95;8.57;;;19.00;99.90;;;;;;5072747;28;20028;-80
2023/06/24 10:11:47;;;;;;;11.38;8.95;;;19.10;99.90;;;;;;5072449;28;20017;-81
2023/06/24 10:14:14;;;;;;;10.82;8.88;;;19.20;99.90;;;;;;5075230;28;20027;-80
2023/06/24 10:16:41;;;;;;;10.00;7.78;;;19.30;99.90;;;;;;5076453;28;20021;-80
2023/06/24 10:19:07;;;;;;;10.88;8.18;;;19.30;99.90;;;;;;5076593;28;20023;-80
2023/06/24 10:21:57;;;;;;;11.50;8.63;;;19.40;99.90;;;;;;5079448;28;20020;-80
2023/06/24 10:24:33;;;;;;;9.73;8.60;;;19.50;99.90;;;;;;5075499;28;20854;-80
2023/06/24 10:27:06;;;;;;;9.98;8.00;;;19.50;99.90;;;;;;5076393;28;20017;-80
2023/06/24 10:29:38;;;;;;;9.98;8.93;;;19.70;99.90;;;;;;5076527;28;20031;-81
2023/06/24 10:32:05;;;;;;;9.95;8.93;;;19.70;99.90;;;;;;5074970;28;20111;-80
2023/06/24 10:34:39;;;;;;;10.63;8.73;;;19.80;99.90;;;;;;5091891;28;20131;-80
2023/06/24 10:37:17;;;;;;;12.25;8.52;;;19.90;99.90;;;;;;5074799;28;20028;-81
2023/06/24 10:39:56;;;;;;;9.48;8.57;;;19.90;99.90;;;;;;5091678;28;20032;-80
2023/06/24 10:42:45;;;;;;;10.70;9.13;;;19.90;99.90;;;;;;5074659;28;20062;-80
2023/06/24 10:45:12;;;;;;;10.48;8.93;;;19.70;99.90;;;;;;5076061;28;20117;-80
2023/06/24 10:47:56;;;;;;;16.40;9.82;;;19.70;99.90;;;;;;5091517;28;20098;-81
2023/06/24 10:50:23;;;;;;;11.82;9.20;;;19.70;99.90;;;;;;5089976;28;20381;-80
2023/06/24 10:52:55;;;;;;;13.35;9.63;;;19.70;99.90;;;;;;5096139;28;20056;-81
2023/06/24 10:55:22;;;;;;;10.55;9.40;;;19.70;99.90;;;;;;5094966;28;20027;-80
2023/06/24 10:57:48;;;;;;;13.90;10.98;;;19.50;99.90;;;;;;5094777;28;20481;-80
2023/06/24 11:00:15;;;;;;;13.13;8.88;;;19.40;99.90;;;;;;5096059;28;20103;-81
2023/06/24 11:02:41;;;;;;;12.02;10.30;;;19.40;99.90;;;;;;5095977;28;20069;-80
2023/06/24 11:05:07;;;;;;;12.65;9.45;;;19.30;99.90;;;;;;5094651;28;20416;-80
2023/06/24 11:07:38;;;;;;;13.43;10.27;;;19.40;99.90;;;;;;5095831;28;20036;-80
2023/06/24 11:10:10;;;;;;;12.35;9.77;;;19.50;99.90;;;;;;5095041;28;20039;-80
2023/06/24 11:12:37;;;;;;;;;;;19.60;99.90;;;;;;5094845;28;20031;-80
2023/06/24 11:15:13;;;;;;;14.90;10.32;;;19.70;99.90;;;;;;5094915;28;19933;-80
2023/06/24 11:17:39;;;;;;;11.88;9.30;;;19.60;99.90;;;;;;5095742;28;20031;-80
2023/06/24 11:20:12;;;;;;;10.48;9.38;;;19.70;99.90;;;;;;5095767;28;20032;-81
2023/06/24 11:22:40;;;;;;;10.07;8.82;;;19.60;99.90;;;;;;5094168;28;20115;-82
2023/06/24 11:25:06;;;;;;;14.10;10.30;;;19.80;99.90;;;;;;5094848;28;20036;-81
2023/06/24 11:27:32;;;;;;;12.57;10.80;;;19.70;99.90;;;;;;5095561;28;20031;-80
2023/06/24 11:30:01;;;;;;;12.77;11.02;;;19.60;99.90;;;;;;5094291;28;20041;-81
2023/06/24 11:32:44;;;;;;;12.88;11.32;;;19.50;99.90;;;;;;5095354;28;20051;-80
2023/06/24 11:35:11;;;;;;;13.15;11.63;;;19.40;99.90;;;;;;5095514;28;20470;-81
2023/06/24 11:37:37;;;;;;;16.63;12.75;;;19.30;99.90;;;;;;5094089;28;20077;-81
2023/06/24 11:40:07;;;;;;;14.27;11.63;;;19.20;99.90;;;;;;5095337;28;20025;-81
2023/06/24 11:42:40;;;;;;;15.32;12.75;;;19.20;99.90;;;;;;5094051;28;20028;-81
2023/06/24 11:45:10;;;;;;;19.38;12.75;;;19.20;99.90;;;;;;5095245;28;20035;-81
2023/06/24 11:47:38;;;;;;;13.82;12.48;;;19.00;99.90;;;;;;5095013;28;20063;-81
2023/06/24 11:50:06;;;;;;;15.77;12.77;;;18.90;99.90;;;;;;5093888;28;20061;-81
2023/06/24 11:52:48;;;;;;;14.20;12.00;;;18.80;99.90;;;;;;5093947;28;20032;-80
2023/06/24 11:55:19;;;;;;;16.25;13.50;;;18.70;99.90;;;;;;5095197;28;20044;-80
2023/06/24 11:57:54;;;;;;;18.13;13.18;;;18.70;99.90;;;;;;5093683;28;20519;-80
2023/06/24 12:00:25;;;;;;;13.63;12.10;;;18.70;99.90;;;;;;5094781;28;20056;-80
2023/06/24 12:02:53;;;;;;;18.92;12.13;;;18.70;99.90;;;;;;5094867;28;20028;-80
2023/06/24 12:05:28;;;;;;;14.38;12.45;;;18.70;99.90;;;;;;5094742;28;20028;-80
2023/06/24 12:08:20;;;;;;;13.90;12.05;;;18.70;99.90;;;;;;5093463;28;20047;-80
2023/06/24 12:10:46;;;;;;;14.27;12.38;;;18.80;99.90;;;;;;5091030;28;20039;-81
2023/06/24 12:13:11;;;;;;;14.88;11.00;;;18.70;99.90;;;;;;5091876;28;20381;-79
2023/06/24 12:15:37;;;;;;;14.43;11.43;;;18.80;99.90;;;;;;5073036;28;20032;-80
2023/06/24 12:18:03;;;;;;;12.63;11.32;;;18.70;99.90;;;;;;5074183;28;20393;-81
2023/06/24 12:20:30;;;;;;;13.07;10.68;;;18.60;99.90;;;;;;5072988;28;20013;-80
2023/06/24 12:22:55;;;;;;;12.73;11.32;;;18.50;99.90;;;;;;5077121;28;20032;-80
2023/06/24 12:25:21;;;;;;;14.93;11.88;;;18.50;99.90;;;;;;5093112;28;20043;-80
2023/06/24 12:27:47;;;;;;;16.23;13.85;;;18.50;99.90;;;;;;5093009;28;20030;-81
2023/06/24 12:30:13;;;;;;;14.95;12.73;;;18.60;99.90;;;;;;5094364;28;20500;-81
2023/06/24 12:32:39;;;;;;;15.10;13.25;;;18.50;99.90;;;;;;5092991;28;20024;-80
2023/06/24 12:35:06;;;;;;;17.73;12.82;;;18.50;99.90;;;;;;5092845;28;20019;-80
2023/06/24 12:37:32;;;;;;;16.85;13.93;;;18.60;99.90;;;;;;5094391;28;20523;-81